sensor_id;sensor_type;location;lat;lon;timestamp;temperature;humidity
8736;DHT22;4404;49.308;12.178;2023-04-24T07:10:50;11.10;99.90
8736;DHT22;4404;49.308;12.178;2023-04-24T07:14:55;11.30;99.90
8736;DHT22;4404;49.308;12.178;2023-04-24T07:16:57;11.30;99.90
8736;DHT22;4404;49.308;12.178;2023-04-24T07:21:01;11.50;99.90
8736;DHT22;4404;49.308;12.178;2023-04-24T07:23:07;11.70;99.90
8736;DHT22;4404;49.308;12.178;2023-04-24T07:27:13;11.90;99.90
8736;DHT22;4404;49.308;12.178;2023-04-24T07:29:16;11.90;99.90
8736;DHT22;4404;49.308;12.178;2023-04-24T07:31:18;12.00;99.90
8736;DHT22;4404;49.308;12.178;2023-04-24T07:33:20;12.20;99.90
8736;DHT22;4404;49.308;12.178;2023-04-24T07:35:33;12.30;99.90
8736;DHT22;4404;49.308;12.178;2023-04-24T07:39:40;10.90;99.90
8736;DHT22;4404;49.308;12.178;2023-04-24T07:41:43;12.40;99.90
8736;DHT22;4404;49.308;12.178;2023-04-24T07:43:46;12.50;99.90
8736;DHT22;4404;49.308;12.178;2023-04-24T07:45:48;12.50;99.90
8736;DHT22;4404;49.308;12.178;2023-04-24T07:47:51;12.50;99.90
8736;DHT22;4404;49.308;12.178;2023-04-24T07:49:53;12.60;99.90
8736;DHT22;4404;49.308;12.178;2023-04-24T07:51:55;12.70;99.90
8736;DHT22;4404;49.308;12.178;2023-04-24T07:53:57;12.80;99.90
8736;DHT22;4404;49.308;12.178;2023-04-24T07:55:59;12.90;99.90
8736;DHT22;4404;49.308;12.178;2023-04-24T07:58:01;13.00;99.90
8736;DHT22;4404;49.308;12.178;2023-04-24T08:00:09;13.00;99.90
8736;DHT22;4404;49.308;12.178;2023-04-24T08:02:11;13.00;99.90
8736;DHT22;4404;49.308;12.178;2023-04-24T08:06:18;13.20;99.90
8736;DHT22;4404;49.308;12.178;2023-04-24T08:08:22;13.30;99.90
8736;DHT22;4404;49.308;12.178;2023-04-24T08:10:24;13.20;99.90
8736;DHT22;4404;49.308;12.178;2023-04-24T08:12:28;13.20;99.90
8736;DHT22;4404;49.308;12.178;2023-04-24T08:14:32;13.20;99.90
8736;DHT22;4404;49.308;12.178;2023-04-24T08:16:36;13.20;99.90
8736;DHT22;4404;49.308;12.178;2023-04-24T08:18:38;13.20;99.90
8736;DHT22;4404;49.308;12.178;2023-04-24T08:20:40;13.20;99.90
8736;DHT22;4404;49.308;12.178;2023-04-24T08:22:43;13.40;99.90
8736;DHT22;4404;49.308;12.178;2023-04-24T08:24:47;13.50;99.90
8736;DHT22;4404;49.308;12.178;2023-04-24T08:26:49;13.50;99.90
8736;DHT22;4404;49.308;12.178;2023-04-24T08:28:52;13.20;99.90
8736;DHT22;4404;49.308;12.178;2023-04-24T08:30:54;12.90;99.90
8736;DHT22;4404;49.308;12.178;2023-04-24T08:32:58;12.60;99.90
8736;DHT22;4404;49.308;12.178;2023-04-24T08:35:00;12.40;99.90
8736;DHT22;4404;49.308;12.178;2023-04-24T08:37:02;12.20;99.90
8736;DHT22;4404;49.308;12.178;2023-04-24T08:39:07;12.10;99.90
8736;DHT22;4404;49.308;12.178;2023-04-24T08:41:12;11.90;99.90
8736;DHT22;4404;49.308;12.178;2023-04-24T08:43:16;11.80;99.90
8736;DHT22;4404;49.308;12.178;2023-04-24T08:45:19;11.70;99.90
8736;DHT22;4404;49.308;12.178;2023-04-24T08:47:22;11.60;99.90
8736;DHT22;4404;49.308;12.178;2023-04-24T08:49:27;11.60;99.90
8736;DHT22;4404;49.308;12.178;2023-04-24T08:51:31;11.60;99.90
8736;DHT22;4404;49.308;12.178;2023-04-24T08:53:33;11.60;99.90
8736;DHT22;4404;49.308;12.178;2023-04-24T08:55:37;11.70;99.90
8736;DHT22;4404;49.308;12.178;2023-04-24T08:57:39;11.80;99.90
8736;DHT22;4404;49.308;12.178;2023-04-24T08:59:42;11.80;99.90
8736;DHT22;4404;49.308;12.178;2023-04-24T09:01:45;11.80;99.90
8736;DHT22;4404;49.308;12.178;2023-04-24T09:06:06;9.80;99.90
8736;DHT22;4404;49.308;12.178;2023-04-24T09:08:10;11.70;99.90
8736;DHT22;4404;49.308;12.178;2023-04-24T09:12:17;11.80;99.90
8736;DHT22;4404;49.308;12.178;2023-04-24T09:14:19;11.80;99.90
8736;DHT22;4404;49.308;12.178;2023-04-24T09:18:25;12.00;99.90
8736;DHT22;4404;49.308;12.178;2023-04-24T09:20:28;12.90;99.90
8736;DHT22;4404;49.308;12.178;2023-04-24T09:22:31;12.20;99.90
8736;DHT22;4404;49.308;12.178;2023-04-24T09:24:34;12.40;99.90
8736;DHT22;4404;49.308;12.178;2023-04-24T09:26:37;12.60;99.90
8736;DHT22;4404;49.308;12.178;2023-04-24T09:28:40;12.80;99.90
8736;DHT22;4404;49.308;12.178;2023-04-24T09:30:42;12.70;99.90
8736;DHT22;4404;49.308;12.178;2023-04-24T09:32:46;12.90;99.90
8736;DHT22;4404;49.308;12.178;2023-04-24T09:34:48;13.30;99.90
8736;DHT22;4404;49.308;12.178;2023-04-24T09:36:51;13.40;99.90
8736;DHT22;4404;49.308;12.178;2023-04-24T09:39:00;13.60;99.90
8736;DHT22;4404;49.308;12.178;2023-04-24T09:41:06;13.70;99.90
8736;DHT22;4404;49.308;12.178;2023-04-24T09:43:13;13.90;99.90
8736;DHT22;4404;49.308;12.178;2023-04-24T09:45:16;14.10;99.90
8736;DHT22;4404;49.308;12.178;2023-04-24T09:47:18;14.10;99.90
8736;DHT22;4404;49.308;12.178;2023-04-24T09:49:23;14.10;99.90
8736;DHT22;4404;49.308;12.178;2023-04-24T09:51:34;14.20;99.90
8736;DHT22;4404;49.308;12.178;2023-04-24T09:53:37;14.00;99.90
8736;DHT22;4404;49.308;12.178;2023-04-24T09:55:45;13.90;99.90
8736;DHT22;4404;49.308;12.178;2023-04-24T09:57:50;13.90;99.90
8736;DHT22;4404;49.308;12.178;2023-04-24T09:59:53;13.90;99.90
8736;DHT22;4404;49.308;12.178;2023-04-24T10:06:02;13.70;99.90
8736;DHT22;4404;49.308;12.178;2023-04-24T10:08:10;13.50;99.90
8736;DHT22;4404;49.308;12.178;2023-04-24T10:10:12;13.60;99.90
8736;DHT22;4404;49.308;12.178;2023-04-24T10:12:16;13.60;99.90
8736;DHT22;4404;49.308;12.178;2023-04-24T10:14:19;13.90;99.90
8736;DHT22;4404;49.308;12.178;2023-04-24T10:16:23;13.80;99.90
8736;DHT22;4404;49.308;12.178;2023-04-24T10:18:29;13.90;99.90
8736;DHT22;4404;49.308;12.178;2023-04-24T10:20:34;14.00;99.90
8736;DHT22;4404;49.308;12.178;2023-04-24T10:22:37;14.10;99.90
8736;DHT22;4404;49.308;12.178;2023-04-24T10:24:40;14.50;99.90
8736;DHT22;4404;49.308;12.178;2023-04-24T10:26:43;14.20;99.90
8736;DHT22;4404;49.308;12.178;2023-04-24T10:28:48;14.30;99.90
8736;DHT22;4404;49.308;12.178;2023-04-24T10:30:51;15.10;99.90
8736;DHT22;4404;49.308;12.178;2023-04-24T10:34:59;14.40;99.90
8736;DHT22;4404;49.308;12.178;2023-04-24T10:37:02;14.40;99.90
8736;DHT22;4404;49.308;12.178;2023-04-24T10:39:09;14.30;99.90
8736;DHT22;4404;49.308;12.178;2023-04-24T10:41:13;14.30;99.90
8736;DHT22;4404;49.308;12.178;2023-04-24T10:43:17;14.00;99.90
8736;DHT22;4404;49.308;12.178;2023-04-24T10:45:23;13.80;99.90
8736;DHT22;4404;49.308;12.178;2023-04-24T10:49:31;13.80;99.90
8736;DHT22;4404;49.308;12.178;2023-04-24T10:51:48;13.70;99.90
8736;DHT22;4404;49.308;12.178;2023-04-24T10:53:53;13.50;99.90
8736;DHT22;4404;49.308;12.178;2023-04-24T10:55:58;13.50;99.90
8736;DHT22;4404;49.308;12.178;2023-04-24T10:58:07;14.00;99.90
8736;DHT22;4404;49.308;12.178;2023-04-24T11:00:14;13.80;99.90
8736;DHT22;4404;49.308;12.178;2023-04-24T11:02:35;13.60;99.90
8736;DHT22;4404;49.308;12.178;2023-04-24T11:04:38;13.50;99.90
8736;DHT22;4404;49.308;12.178;2023-04-24T11:06:41;13.70;99.90
8736;DHT22;4404;49.308;12.178;2023-04-24T11:08:44;13.70;99.90
8736;DHT22;4404;49.308;12.178;2023-04-24T11:10:54;13.70;99.90
8736;DHT22;4404;49.308;12.178;2023-04-24T11:12:58;13.80;99.90
8736;DHT22;4404;49.308;12.178;2023-04-24T11:15:01;15.30;99.90
8736;DHT22;4404;49.308;12.178;2023-04-24T11:17:03;13.70;99.90
8736;DHT22;4404;49.308;12.178;2023-04-24T11:19:08;13.80;99.90
8736;DHT22;4404;49.308;12.178;2023-04-24T11:25:18;13.90;99.90
8736;DHT22;4404;49.308;12.178;2023-04-24T11:29:40;14.10;99.90
8736;DHT22;4404;49.308;12.178;2023-04-24T11:31:44;14.10;99.90
8736;DHT22;4404;49.308;12.178;2023-04-24T11:33:52;14.00;99.90
8736;DHT22;4404;49.308;12.178;2023-04-24T11:35:57;14.00;99.90
8736;DHT22;4404;49.308;12.178;2023-04-24T11:40:04;14.00;99.90
8736;DHT22;4404;49.308;12.178;2023-04-24T11:42:08;14.00;99.90
8736;DHT22;4404;49.308;12.178;2023-04-24T11:44:11;13.90;99.90
8736;DHT22;4404;49.308;12.178;2023-04-24T11:46:16;13.80;99.90
8736;DHT22;4404;49.308;12.178;2023-04-24T11:48:19;13.80;99.90
8736;DHT22;4404;49.308;12.178;2023-04-24T11:50:23;13.80;99.90
8736;DHT22;4404;49.308;12.178;2023-04-24T11:52:29;13.70;99.90
8736;DHT22;4404;49.308;12.178;2023-04-24T11:56:34;13.60;99.90
8736;DHT22;4404;49.308;12.178;2023-04-24T11:58:37;13.60;99.90
8736;DHT22;4404;49.308;12.178;2023-04-24T12:04:45;13.60;99.90
8736;DHT22;4404;49.308;12.178;2023-04-24T12:06:59;13.60;99.90
8736;DHT22;4404;49.308;12.178;2023-04-24T12:09:06;13.60;99.90
8736;DHT22;4404;49.308;12.178;2023-04-24T12:11:09;13.70;99.90
8736;DHT22;4404;49.308;12.178;2023-04-24T12:13:13;13.10;99.90
8736;DHT22;4404;49.308;12.178;2023-04-24T12:15:16;13.90;99.90
8736;DHT22;4404;49.308;12.178;2023-04-24T12:17:24;14.00;99.90
8736;DHT22;4404;49.308;12.178;2023-04-24T12:19:29;14.20;99.90
8736;DHT22;4404;49.308;12.178;2023-04-24T12:21:31;13.00;99.90
8736;DHT22;4404;49.308;12.178;2023-04-24T12:23:34;14.70;99.90
8736;DHT22;4404;49.308;12.178;2023-04-24T12:25:38;15.00;99.90
8736;DHT22;4404;49.308;12.178;2023-04-24T12:27:41;15.20;99.90
8736;DHT22;4404;49.308;12.178;2023-04-24T12:29:51;15.40;99.90
8736;DHT22;4404;49.308;12.178;2023-04-24T12:31:54;15.50;99.90
8736;DHT22;4404;49.308;12.178;2023-04-24T12:33:57;15.60;99.90
8736;DHT22;4404;49.308;12.178;2023-04-24T12:35:59;15.60;99.90
8736;DHT22;4404;49.308;12.178;2023-04-24T12:38:07;15.60;99.90
8736;DHT22;4404;49.308;12.178;2023-04-24T12:40:10;15.60;99.90
8736;DHT22;4404;49.308;12.178;2023-04-24T12:42:15;15.70;99.90
8736;DHT22;4404;49.308;12.178;2023-04-24T12:44:17;15.70;99.90
8736;DHT22;4404;49.308;12.178;2023-04-24T12:46:19;15.60;99.90
8736;DHT22;4404;49.308;12.178;2023-04-24T12:48:21;15.50;99.90
8736;DHT22;4404;49.308;12.178;2023-04-24T12:50:23;15.30;99.90
8736;DHT22;4404;49.308;12.178;2023-04-24T12:52:27;14.80;99.90
8736;DHT22;4404;49.308;12.178;2023-04-24T12:54:32;14.80;99.90
8736;DHT22;4404;49.308;12.178;2023-04-24T12:56:35;14.50;99.90
8736;DHT22;4404;49.308;12.178;2023-04-24T12:58:41;14.60;99.90
8736;DHT22;4404;49.308;12.178;2023-04-24T13:00:43;14.50;99.90
8736;DHT22;4404;49.308;12.178;2023-04-24T13:02:46;14.80;99.90
8736;DHT22;4404;49.308;12.178;2023-04-24T13:04:49;15.00;99.90
8736;DHT22;4404;49.308;12.178;2023-04-24T13:06:51;15.20;99.90
8736;DHT22;4404;49.308;12.178;2023-04-24T13:08:53;15.40;99.90
8736;DHT22;4404;49.308;12.178;2023-04-24T13:13:01;15.30;99.90
8736;DHT22;4404;49.308;12.178;2023-04-24T13:15:06;15.10;99.50
8736;DHT22;4404;49.308;12.178;2023-04-24T13:19:14;15.20;99.90
8736;DHT22;4404;49.308;12.178;2023-04-24T13:23:26;14.60;99.20
8736;DHT22;4404;49.308;12.178;2023-04-24T13:25:35;14.50;99.90
8736;DHT22;4404;49.308;12.178;2023-04-24T13:27:38;14.40;99.40
8736;DHT22;4404;49.308;12.178;2023-04-24T13:31:46;14.30;99.30
8736;DHT22;4404;49.308;12.178;2023-04-24T13:37:54;14.10;98.00
8736;DHT22;4404;49.308;12.178;2023-04-24T13:41:59;14.10;98.00
8736;DHT22;4404;49.308;12.178;2023-04-24T13:46:04;16.20;98.00
8736;DHT22;4404;49.308;12.178;2023-04-24T13:48:07;14.10;97.80
8736;DHT22;4404;49.308;12.178;2023-04-24T13:54:18;14.10;98.10
8736;DHT22;4404;49.308;12.178;2023-04-24T13:58:25;14.10;98.60
8736;DHT22;4404;49.308;12.178;2023-04-24T14:04:35;14.30;98.10
8736;DHT22;4404;49.308;12.178;2023-04-24T14:08:41;14.30;98.80
8736;DHT22;4404;49.308;12.178;2023-04-24T14:10:44;14.30;99.30
8736;DHT22;4404;49.308;12.178;2023-04-24T14:16:51;14.20;98.00
8736;DHT22;4404;49.308;12.178;2023-04-24T14:20:58;14.20;97.50
8736;DHT22;4404;49.308;12.178;2023-04-24T14:25:07;14.20;97.50
8736;DHT22;4404;49.308;12.178;2023-04-24T14:33:18;14.30;97.40
8736;DHT22;4404;49.308;12.178;2023-04-24T14:37:39;14.30;96.70
8736;DHT22;4404;49.308;12.178;2023-04-24T14:40:31;14.20;96.60
8736;DHT22;4404;49.308;12.178;2023-04-24T14:44:42;14.20;97.10
8736;DHT22;4404;49.308;12.178;2023-04-24T14:46:45;14.30;97.00
8736;DHT22;4404;49.308;12.178;2023-04-24T14:48:50;14.30;95.90
8736;DHT22;4404;49.308;12.178;2023-04-24T14:50:54;14.30;95.60
8736;DHT22;4404;49.308;12.178;2023-04-24T14:52:57;14.30;95.10
8736;DHT22;4404;49.308;12.178;2023-04-24T14:55:04;14.20;95.70
8736;DHT22;4404;49.308;12.178;2023-04-24T14:57:10;14.10;95.30
8736;DHT22;4404;49.308;12.178;2023-04-24T14:59:15;14.10;95.90
8736;DHT22;4404;49.308;12.178;2023-04-24T15:01:21;14.00;96.40
8736;DHT22;4404;49.308;12.178;2023-04-24T15:03:24;14.00;95.90
8736;DHT22;4404;49.308;12.178;2023-04-24T15:05:31;14.00;95.80
8736;DHT22;4404;49.308;12.178;2023-04-24T15:07:33;14.00;96.30
8736;DHT22;4404;49.308;12.178;2023-04-24T15:09:37;13.90;96.00
8736;DHT22;4404;49.308;12.178;2023-04-24T15:11:45;13.80;96.20
8736;DHT22;4404;49.308;12.178;2023-04-24T15:13:52;13.80;96.50
8736;DHT22;4404;49.308;12.178;2023-04-24T15:15:59;13.70;96.70
8736;DHT22;4404;49.308;12.178;2023-04-24T15:18:07;13.60;97.00
8736;DHT22;4404;49.308;12.178;2023-04-24T15:20:12;13.60;97.00
8736;DHT22;4404;49.308;12.178;2023-04-24T15:22:18;13.50;97.60
8736;DHT22;4404;49.308;12.178;2023-04-24T15:24:28;13.40;97.90
8736;DHT22;4404;49.308;12.178;2023-04-24T15:26:31;13.30;98.60
8736;DHT22;4404;49.308;12.178;2023-04-24T15:28:41;13.20;99.40
8736;DHT22;4404;49.308;12.178;2023-04-24T15:30:48;13.10;99.30
8736;DHT22;4404;49.308;12.178;2023-04-24T15:32:50;13.10;99.80
8736;DHT22;4404;49.308;12.178;2023-04-24T15:34:54;13.10;99.90
8736;DHT22;4404;49.308;12.178;2023-04-24T15:36:56;13.00;99.90
8736;DHT22;4404;49.308;12.178;2023-04-24T15:38:59;12.80;99.90
8736;DHT22;4404;49.308;12.178;2023-04-24T15:41:07;12.80;99.90
8736;DHT22;4404;49.308;12.178;2023-04-24T15:43:13;12.70;99.90
8736;DHT22;4404;49.308;12.178;2023-04-24T15:45:30;12.60;99.90
8736;DHT22;4404;49.308;12.178;2023-04-24T15:47:47;12.60;99.90
8736;DHT22;4404;49.308;12.178;2023-04-24T15:49:52;12.60;99.90
8736;DHT22;4404;49.308;12.178;2023-04-24T15:52:00;12.70;99.90
8736;DHT22;4404;49.308;12.178;2023-04-24T15:54:03;12.70;99.90
8736;DHT22;4404;49.308;12.178;2023-04-24T15:56:07;12.90;99.90
8736;DHT22;4404;49.308;12.178;2023-04-24T15:58:13;13.00;99.90
8736;DHT22;4404;49.308;12.178;2023-04-24T16:00:19;13.10;99.90
8736;DHT22;4404;49.308;12.178;2023-04-24T16:02:25;13.20;99.90
8736;DHT22;4404;49.308;12.178;2023-04-24T16:04:30;13.40;99.90
8736;DHT22;4404;49.308;12.178;2023-04-24T16:06:37;13.50;99.90
8736;DHT22;4404;49.308;12.178;2023-04-24T16:08:39;13.40;99.90
8736;DHT22;4404;49.308;12.178;2023-04-24T16:10:42;13.40;99.90
8736;DHT22;4404;49.308;12.178;2023-04-24T16:12:47;13.40;99.90
8736;DHT22;4404;49.308;12.178;2023-04-24T16:15:18;13.30;99.90
8736;DHT22;4404;49.308;12.178;2023-04-24T16:17:23;13.20;99.90
8736;DHT22;4404;49.308;12.178;2023-04-24T16:19:26;13.30;99.90
8736;DHT22;4404;49.308;12.178;2023-04-24T16:21:29;13.20;99.90
8736;DHT22;4404;49.308;12.178;2023-04-24T16:23:33;13.20;99.90
8736;DHT22;4404;49.308;12.178;2023-04-24T16:25:36;13.10;99.90
8736;DHT22;4404;49.308;12.178;2023-04-24T16:27:40;12.90;99.90
8736;DHT22;4404;49.308;12.178;2023-04-24T16:29:46;12.80;99.90
8736;DHT22;4404;49.308;12.178;2023-04-24T16:31:49;12.80;99.90
8736;DHT22;4404;49.308;12.178;2023-04-24T16:33:52;12.70;99.90
8736;DHT22;4404;49.308;12.178;2023-04-24T16:35:55;12.60;99.90
8736;DHT22;4404;49.308;12.178;2023-04-24T16:37:59;12.50;99.90
8736;DHT22;4404;49.308;12.178;2023-04-24T16:40:10;12.50;99.90
8736;DHT22;4404;49.308;12.178;2023-04-24T16:42:14;12.50;99.90
8736;DHT22;4404;49.308;12.178;2023-04-24T16:44:19;12.40;99.90
8736;DHT22;4404;49.308;12.178;2023-04-24T16:46:23;12.40;99.90
8736;DHT22;4404;49.308;12.178;2023-04-24T16:48:26;12.40;99.90
8736;DHT22;4404;49.308;12.178;2023-04-24T16:50:29;12.40;99.90
8736;DHT22;4404;49.308;12.178;2023-04-24T16:52:33;12.40;99.90
8736;DHT22;4404;49.308;12.178;2023-04-24T16:54:35;12.40;99.90
8736;DHT22;4404;49.308;12.178;2023-04-24T16:56:39;12.40;99.90
8736;DHT22;4404;49.308;12.178;2023-04-24T16:58:41;12.40;99.90
8736;DHT22;4404;49.308;12.178;2023-04-24T17:00:44;12.40;99.90
8736;DHT22;4404;49.308;12.178;2023-04-24T17:02:48;12.40;99.90
8736;DHT22;4404;49.308;12.178;2023-04-24T17:04:50;12.50;99.90
8736;DHT22;4404;49.308;12.178;2023-04-24T17:06:53;12.50;99.90
8736;DHT22;4404;49.308;12.178;2023-04-24T17:08:55;12.40;99.90
8736;DHT22;4404;49.308;12.178;2023-04-24T17:11:01;12.30;99.90
8736;DHT22;4404;49.308;12.178;2023-04-24T17:13:08;12.40;99.90
8736;DHT22;4404;49.308;12.178;2023-04-24T17:15:10;12.50;99.90
8736;DHT22;4404;49.308;12.178;2023-04-24T17:17:17;12.50;99.90
8736;DHT22;4404;49.308;12.178;2023-04-24T17:19:22;12.40;99.90
8736;DHT22;4404;49.308;12.178;2023-04-24T17:21:27;12.40;99.90
8736;DHT22;4404;49.308;12.178;2023-04-24T17:23:34;12.20;99.90
8736;DHT22;4404;49.308;12.178;2023-04-24T17:25:43;12.20;99.90
8736;DHT22;4404;49.308;12.178;2023-04-24T17:27:48;12.10;99.90
8736;DHT22;4404;49.308;12.178;2023-04-24T17:29:55;12.10;99.90
8736;DHT22;4404;49.308;12.178;2023-04-24T17:31:57;12.20;99.90
8736;DHT22;4404;49.308;12.178;2023-04-24T17:34:00;12.20;99.90
8736;DHT22;4404;49.308;12.178;2023-04-24T17:36:06;12.20;99.90
8736;DHT22;4404;49.308;12.178;2023-04-24T17:38:10;12.20;99.90
8736;DHT22;4404;49.308;12.178;2023-04-24T17:40:22;12.10;99.90
8736;DHT22;4404;49.308;12.178;2023-04-24T17:42:27;12.00;99.90
8736;DHT22;4404;49.308;12.178;2023-04-24T17:44:30;12.00;99.90
8736;DHT22;4404;49.308;12.178;2023-04-24T17:46:39;11.90;99.90
8736;DHT22;4404;49.308;12.178;2023-04-24T17:48:46;11.90;99.90
8736;DHT22;4404;49.308;12.178;2023-04-24T17:50:51;12.00;99.90
8736;DHT22;4404;49.308;12.178;2023-04-24T17:53:05;12.00;99.90
8736;DHT22;4404;49.308;12.178;2023-04-24T17:55:19;12.10;99.90
8736;DHT22;4404;49.308;12.178;2023-04-24T17:57:24;12.00;99.90
8736;DHT22;4404;49.308;12.178;2023-04-24T17:59:30;12.00;99.90
8736;DHT22;4404;49.308;12.178;2023-04-24T18:01:38;12.00;99.90
8736;DHT22;4404;49.308;12.178;2023-04-24T18:03:44;12.00;99.90
8736;DHT22;4404;49.308;12.178;2023-04-24T18:05:48;12.10;99.90
